Observations de surface / France / LFKJ

Québec | Canada | États-Unis | France | UK | Europe | Ailleurs

Affichage: Infos & localisation pour LFKJ | Aide pour décoder les METARs

LFKJ AJACCIO/CAMPO ORO -- FR
Raw surface observations for station LFKJ
LFKJ 211700Z 03005KT 350V080 9999 FEW066 BKN180 14/00 Q1016 TEMPO 07015G25KT=
LFKJ 211630Z VRB05G24KT 9999 FEW066 BKN180 13/M01 Q1017 NOSIG=
LFKJ 211600Z 04010KT 9999 FEW066 BKN180 14/M01 Q1016 NOSIG=
LFKJ 211530Z 06009KT 020V090 9999 FEW066 BKN180 14/M01 Q1016 NOSIG=
LFKJ 211500Z 02003KT 340V090 9999 FEW066 BKN180 13/00 Q1016 NOSIG=
LFKJ 211430Z 00000KT 9999 FEW066 BKN180 13/03 Q1016 NOSIG=
LFKJ 211400Z VRB02KT 9999 FEW066 BKN180 14/01 Q1016 NOSIG=
LFKJ 211330Z 02005KT 340V080 9999 FEW066 BKN200 14/01 Q1016 NOSIG=
LFKJ 211300Z VRB03KT 9999 FEW066 BKN200 14/06 Q1017 NOSIG=
LFKJ 211230Z 29003KT 260V330 9999 FEW066 BKN200 13/05 Q1017 NOSIG=
LFKJ 211200Z 24006KT 9999 FEW066 BKN200 13/06 Q1018 NOSIG=
LFKJ 211130Z 25009KT 9999 FEW066 SCT210 14/05 Q1018 NOSIG=
LFKJ 211100Z 22006KT 9999 FEW066 SCT210 15/05 Q1019 NOSIG=
LFKJ 211030Z 22005KT 9999 FEW066 SCT210 14/06 Q1019 NOSIG=
LFKJ 211000Z 21005KT 9999 FEW066 SCT210 13/06 Q1019 NOSIG=
LFKJ 210930Z VRB03KT 9999 FEW066 SCT210 13/04 Q1019 NOSIG=
LFKJ 210900Z 00000KT 9999 FEW066 BKN210 10/04 Q1019 NOSIG=
LFKJ 210830Z VRB03KT 9999 FEW066 BKN210 07/03 Q1019 NOSIG=
LFKJ 210800Z VRB03KT 9999 FEW066 BKN210 05/02 Q1019 NOSIG=
LFKJ 210730Z 04002KT 9999 FEW066 BKN210 03/01 Q1019 NOSIG=
LFKJ 210700Z VRB03KT 9999 FEW066 BKN210 03/02 Q1020 NOSIG=
LFKJ 210630Z 05003KT 020V080 9999 FEW066 BKN210 03/01 Q1020 NOSIG=
LFKJ 210600Z 04003KT 340V070 9999 FEW066 SCT120 BKN210 03/01 Q1020 NOSIG=
LFKJ 210530Z 09003KT 9999 FEW066 SCT120 BKN210 03/01 Q1020 NOSIG=
LFKJ 210500Z 08003KT 9999 FEW066 SCT120 BKN210 04/01 Q1020 NOSIG=
LFKJ 210430Z AUTO VRB02KT CAVOK 04/01 Q1020 NOSIG=
LFKJ 210400Z AUTO 03004KT CAVOK 04/01 Q1020 NOSIG=
LFKJ 210330Z AUTO 06003KT 020V090 CAVOK 04/01 Q1020 NOSIG=
LFKJ 210300Z AUTO 09003KT 060V130 CAVOK 03/01 Q1021 NOSIG=
LFKJ 210230Z AUTO 05002KT CAVOK 03/00 Q1021 NOSIG=
LFKJ 210200Z AUTO 00000KT CAVOK 03/M00 Q1021 NOSIG=
LFKJ 210130Z AUTO VRB02KT CAVOK 03/00 Q1022 NOSIG=
LFKJ 210100Z AUTO 06004KT 030V090 9999 FEW062 SCT072 03/M00 Q1022 NOSIG=
LFKJ 210030Z AUTO VRB02KT 9999 FEW068 SCT220 04/00 Q1022 NOSIG=
LFKJ 210000Z AUTO 12004KT 070V160 9999 BKN064 03/00 Q1022 NOSIG=
LFKJ 202330Z AUTO 15002KT 9999 BKN064 04/00 Q1022 NOSIG=
LFKJ 202300Z AUTO VRB02KT 9999 FEW066 05/01 Q1023 NOSIG=
LFKJ 202230Z AUTO 07004KT 9999 FEW068 03/01 Q1023 NOSIG=
LFKJ 202200Z AUTO 04004KT 010V080 9999 BKN074 BKN140 03/M00 Q1023 NOSIG=
LFKJ 202130Z AUTO 04004KT 350V090 9999 BKN076 BKN130 OVC230 04/00 Q1023 NOSIG=
LFKJ 202100Z AUTO 09004KT CAVOK 03/M00 Q1023 NOSIG=
LFKJ 202030Z AUTO VRB03KT CAVOK 03/M00 Q1023 NOSIG=
LFKJ 202000Z AUTO VRB02KT CAVOK 04/00 Q1023 NOSIG=
LFKJ 201930Z AUTO 07004KT CAVOK 05/01 Q1023 NOSIG=
LFKJ 201900Z AUTO 07004KT CAVOK 04/01 Q1023 NOSIG=
LFKJ 201830Z AUTO 05004KT CAVOK 05/02 Q1023 NOSIG=
LFKJ 201800Z AUTO 06005KT CAVOK 05/02 Q1023 NOSIG=
LFKJ 201730Z AUTO 07005KT CAVOK 07/02 Q1023 NOSIG=
LFKJ 201700Z 07005KT 9999 FEW070 BKN200 07/03 Q1023 NOSIG=